Time;durP1;ratioP1;P1;durP2;ratioP2;P2;SDS_P1;SDS_P2;PMS_P1;PMS_P2;Temp;Humidity;BMP_temperature;BMP_pressure;BME280_temperature;BME280_humidity;BME280_pressure;Samples;Min_cycle;Max_cycle;Signal;HPM_P1;HPM_P2
2024/04/13 00:01:59;;;;;;;11.05;3.40;;;;;;;;;;5522301;26;20025;-64
2024/04/13 00:04:26;;;;;;;9.10;3.20;;;;;;;;;;5523174;25;20477;-64
2024/04/13 00:06:54;;;;;;;19.85;3.88;;;;;;;;;;5521947;25;20042;-64
2024/04/13 00:09:22;;;;;;;9.45;3.58;;;;;;;;;;5523340;26;20034;-64
2024/04/13 00:11:49;;;;;;;10.48;3.28;;;;;;;;;;5521851;26;20059;-64
2024/04/13 00:14:17;;;;;;;12.80;3.90;;;;;;;;;;5523052;25;20495;-64
2024/04/13 00:16:44;;;;;;;10.18;3.72;;;;;;;;;;5522808;25;20057;-63
2024/04/13 00:19:12;;;;;;;14.32;3.45;;;;;;;;;;5521833;25;20029;-63
2024/04/13 00:21:40;;;;;;;11.02;3.28;;;;;;;;;;5517272;25;20029;-63
2024/04/13 00:24:07;;;;;;;11.85;3.00;;;;;;;;;;5521975;25;20018;-63
2024/04/13 00:26:35;;;;;;;10.10;3.20;;;;;;;;;;5521328;25;20465;-63
2024/04/13 00:29:05;;;;;;;10.75;3.45;;;;;;;;;;5522558;26;20021;-63
2024/04/13 00:31:33;;;;;;;16.67;4.18;;;;;;;;;;5522954;25;20373;-63
2024/04/13 00:34:02;;;;;;;13.05;3.28;;;;;;;;;;5508281;26;20026;-61
2024/04/13 00:36:29;;;;;;;11.65;3.28;;;;;;;;;;5520707;26;20025;-62
2024/04/13 00:38:56;;;;;;;11.63;3.50;;;;;;;;;;5522770;26;20137;-62
2024/04/13 00:41:25;;;;;;;15.15;4.10;;;;;;;;;;5515893;25;20372;-63
2024/04/13 00:43:52;;;;;;;19.15;6.10;;;;;;;;;;5521966;26;20057;-63
2024/04/13 00:46:23;;;;;;;11.63;3.30;;;;;;;;;;5522370;25;20362;-62
2024/04/13 00:48:52;;;;;;;17.50;3.95;;;;;;;;;;5519283;26;20021;-62
2024/04/13 00:51:19;;;;;;;13.07;3.38;;;;;;;;;;5519406;25;20021;-62
2024/04/13 00:53:46;;;;;;;9.50;3.83;;;;;;;;;;5522606;25;20026;-62
2024/04/13 00:56:14;;;;;;;13.48;3.67;;;;;;;;;;5510202;26;20033;-62
2024/04/13 00:58:43;;;;;;;14.27;3.95;;;;;;;;;;5515395;25;20026;-62
2024/04/13 01:01:10;;;;;;;14.68;4.25;;;;;;;;;;5521181;25;20037;-62
2024/04/13 01:03:38;;;;;;;10.10;3.45;;;;;;;;;;5522417;25;20021;-62
2024/04/13 01:06:08;;;;;;;13.35;4.53;;;;;;;;;;5522262;25;20025;-62
2024/04/13 01:08:35;;;;;;;11.75;3.50;;;;;;;;;;5521019;26;20034;-62
2024/04/13 01:11:03;;;;;;;10.95;3.58;;;;;;;;;;5522215;26;20021;-62
2024/04/13 01:13:31;;;;;;;11.30;4.00;;;;;;;;;;5516118;26;20101;-62
2024/04/13 01:15:58;;;;;;;15.57;3.90;;;;;;;;;;5503111;26;20037;-62
2024/04/13 01:18:26;;;;;;;14.18;3.45;;;;;;;;;;5521118;26;20025;-62
2024/04/13 01:20:53;;;;;;;13.75;3.92;;;;;;;;;;5522121;25;20021;-62
2024/04/13 01:23:22;;;;;;;13.65;4.15;;;;;;;;;;5520767;25;20102;-63
2024/04/13 01:25:50;;;;;;;19.23;4.72;;;;;;;;;;5521702;26;20033;-62
2024/04/13 01:28:17;;;;;;;14.32;4.45;;;;;;;;;;5521673;25;20025;-63
2024/04/13 01:30:45;;;;;;;13.38;4.00;;;;;;;;;;5520811;26;20089;-62
2024/04/13 01:33:13;;;;;;;13.98;4.32;;;;;;;;;;5521890;25;20102;-62
2024/04/13 01:35:41;;;;;;;15.52;3.95;;;;;;;;;;5514855;26;20133;-62
2024/04/13 01:38:09;;;;;;;12.27;3.65;;;;;;;;;;5520851;25;20024;-62
2024/04/13 01:40:36;;;;;;;11.75;3.72;;;;;;;;;;5521326;25;20025;-62
2024/04/13 01:43:04;;;;;;;11.40;4.28;;;;;;;;;;5521613;25;20056;-62
2024/04/13 01:45:32;;;;;;;14.65;3.78;;;;;;;;;;5520930;25;20057;-62
2024/04/13 01:47:59;;;;;;;16.02;3.70;;;;;;;;;;5521959;25;20443;-62
2024/04/13 01:50:27;;;;;;;14.75;3.83;;;;;;;;;;5513034;25;20480;-62
2024/04/13 01:52:55;;;;;;;12.75;4.65;;;;;;;;;;5509663;26;20021;-62
2024/04/13 01:55:22;;;;;;;14.93;3.97;;;;;;;;;;5521176;26;20026;-62
2024/04/13 01:57:50;;;;;;;15.00;4.28;;;;;;;;;;5520636;25;20034;-62
2024/04/13 02:00:18;;;;;;;13.55;4.22;;;;;;;;;;5521440;25;20029;-62
2024/04/13 02:02:45;;;;;;;19.20;4.07;;;;;;;;;;5520935;25;20093;-62
2024/04/13 02:05:13;;;;;;;15.00;4.10;;;;;;;;;;5520352;25;20030;-62
2024/04/13 02:07:40;;;;;;;16.58;4.60;;;;;;;;;;5521463;25;20029;-62
2024/04/13 02:10:10;;;;;;;14.15;3.63;;;;;;;;;;5521175;26;20037;-62
2024/04/13 02:12:37;;;;;;;12.73;4.38;;;;;;;;;;5520066;25;20025;-62
2024/04/13 02:15:05;;;;;;;12.82;3.75;;;;;;;;;;5521498;26;20021;-63
2024/04/13 02:17:32;;;;;;;15.10;3.33;;;;;;;;;;5521123;25;20033;-63
2024/04/13 02:19:59;;;;;;;14.88;4.03;;;;;;;;;;5519421;26;20364;-63
2024/04/13 02:22:32;;;;;;;14.07;4.57;;;;;;;;;;5521129;25;20485;-63
2024/04/13 02:25:01;;;;;;;13.95;3.95;;;;;;;;;;5520428;26;20029;-63
2024/04/13 02:27:29;;;;;;;15.82;3.85;;;;;;;;;;5520126;25;20026;-63
2024/04/13 02:29:56;;;;;;;22.25;5.22;;;;;;;;;;5520777;25;20089;-63
2024/04/13 02:32:25;;;;;;;17.40;4.63;;;;;;;;;;5520566;25;20477;-63
2024/04/13 02:34:52;;;;;;;14.43;4.13;;;;;;;;;;5520511;25;20093;-63
2024/04/13 02:37:19;;;;;;;14.15;3.67;;;;;;;;;;5520635;26;20026;-63
2024/04/13 02:39:47;;;;;;;20.33;3.92;;;;;;;;;;5519767;25;20462;-63
2024/04/13 02:42:14;;;;;;;18.10;4.15;;;;;;;;;;5520663;26;20356;-63
2024/04/13 02:44:42;;;;;;;17.90;4.20;;;;;;;;;;5520960;25;20040;-63
2024/04/13 02:47:10;;;;;;;13.60;4.10;;;;;;;;;;5519552;25;20033;-63
2024/04/13 02:49:37;;;;;;;14.95;3.97;;;;;;;;;;5518995;25;20033;-63
2024/04/13 02:52:05;;;;;;;13.75;4.70;;;;;;;;;;5524525;25;20033;-63
2024/04/13 02:54:33;;;;;;;21.83;5.68;;;;;;;;;;5522970;26;20041;-63
2024/04/13 02:57:00;;;;;;;15.32;4.07;;;;;;;;;;5524338;25;20145;-63
2024/04/13 02:59:28;;;;;;;15.80;4.80;;;;;;;;;;5523862;25;20038;-63
2024/04/13 03:01:56;;;;;;;17.20;4.20;;;;;;;;;;5523245;25;20034;-63
2024/04/13 03:04:24;;;;;;;15.82;4.70;;;;;;;;;;5523464;26;20030;-63
2024/04/13 03:06:51;;;;;;;13.95;4.57;;;;;;;;;;5524429;26;20117;-63
2024/04/13 03:09:20;;;;;;;15.13;3.80;;;;;;;;;;5523056;26;20460;-63
2024/04/13 03:11:48;;;;;;;13.98;4.28;;;;;;;;;;5523891;25;20034;-63
2024/04/13 03:14:15;;;;;;;16.23;4.13;;;;;;;;;;5523921;25;20025;-63
2024/04/13 03:16:43;;;;;;;14.13;4.13;;;;;;;;;;5522612;26;20030;-63
2024/04/13 03:19:10;;;;;;;14.52;4.82;;;;;;;;;;5523559;25;20152;-63
2024/04/13 03:21:38;;;;;;;10.93;4.00;;;;;;;;;;5523277;25;20038;-63
2024/04/13 03:24:06;;;;;;;20.63;6.25;;;;;;;;;;5523580;25;20475;-63
2024/04/13 03:26:33;;;;;;;19.63;5.38;;;;;;;;;;5523128;26;20029;-63
2024/04/13 03:29:01;;;;;;;18.13;4.30;;;;;;;;;;5522876;25;20390;-63
2024/04/13 03:31:28;;;;;;;13.95;4.05;;;;;;;;;;5523312;26;20030;-63
2024/04/13 03:33:57;;;;;;;10.73;3.92;;;;;;;;;;5512650;26;20377;-63
2024/04/13 03:36:26;;;;;;;13.45;4.70;;;;;;;;;;5522654;26;20026;-63
2024/04/13 03:38:56;;;;;;;14.30;4.30;;;;;;;;;;5523056;26;20364;-63
2024/04/13 03:41:24;;;;;;;15.10;3.83;;;;;;;;;;5523686;25;20469;-63
2024/04/13 03:43:51;;;;;;;20.05;4.35;;;;;;;;;;5505106;26;20400;-63
2024/04/13 03:46:20;;;;;;;14.90;3.70;;;;;;;;;;5523586;25;20032;-63
2024/04/13 03:48:47;;;;;;;22.10;5.22;;;;;;;;;;5506892;26;20025;-63
2024/04/13 03:51:15;;;;;;;17.08;4.72;;;;;;;;;;5520447;26;20021;-63
2024/04/13 03:53:42;;;;;;;15.38;3.92;;;;;;;;;;5523145;25;20097;-63
2024/04/13 03:56:10;;;;;;;13.50;4.32;;;;;;;;;;5523071;25;20026;-63
2024/04/13 03:58:37;;;;;;;17.95;4.40;;;;;;;;;;5515318;26;20050;-63
2024/04/13 04:01:05;;;;;;;22.20;4.75;;;;;;;;;;5521826;25;20033;-63
2024/04/13 04:03:32;;;;;;;21.25;4.90;;;;;;;;;;5523137;25;20025;-63
2024/04/13 04:05:59;;;;;;;17.83;4.75;;;;;;;;;;5522270;26;20025;-63
2024/04/13 04:08:27;;;;;;;11.30;4.07;;;;;;;;;;5516234;26;20021;-63
2024/04/13 04:10:54;;;;;;;18.73;4.85;;;;;;;;;;5521938;25;20133;-63
2024/04/13 04:13:23;;;;;;;12.63;4.93;;;;;;;;;;5523395;26;20038;-63
2024/04/13 04:15:52;;;;;;;11.35;4.55;;;;;;;;;;5523077;25;20107;-63
2024/04/13 04:18:20;;;;;;;23.60;4.38;;;;;;;;;;5515858;26;20025;-63
2024/04/13 04:20:47;;;;;;;23.58;4.53;;;;;;;;;;5522854;25;20108;-63
2024/04/13 04:23:15;;;;;;;18.50;4.53;;;;;;;;;;5522197;25;20025;-63
2024/04/13 04:25:42;;;;;;;16.38;4.82;;;;;;;;;;5522162;25;20025;-63
2024/04/13 04:28:11;;;;;;;26.20;5.30;;;;;;;;;;5522677;25;20378;-63
2024/04/13 04:30:39;;;;;;;17.52;4.95;;;;;;;;;;5513396;26;20037;-63
2024/04/13 04:33:06;;;;;;;26.30;5.07;;;;;;;;;;5521498;25;20483;-63
2024/04/13 04:35:34;;;;;;;18.90;4.88;;;;;;;;;;5522524;26;20025;-63
2024/04/13 04:38:01;;;;;;;22.05;4.95;;;;;;;;;;5522628;25;20490;-63
2024/04/13 04:40:28;;;;;;;17.27;5.00;;;;;;;;;;5515735;26;20033;-63
2024/04/13 04:42:56;;;;;;;21.65;6.95;;;;;;;;;;5522608;25;20042;-63
2024/04/13 04:45:23;;;;;;;19.48;4.63;;;;;;;;;;5522377;26;20033;-63
2024/04/13 04:47:53;;;;;;;27.20;5.50;;;;;;;;;;5521670;25;20025;-63
2024/04/13 04:50:20;;;;;;;24.63;5.15;;;;;;;;;;5520966;25;20089;-63
2024/04/13 04:52:48;;;;;;;23.67;5.05;;;;;;;;;;5522217;25;20374;-63
2024/04/13 04:55:16;;;;;;;21.85;5.60;;;;;;;;;;5522024;26;20429;-63
2024/04/13 04:57:43;;;;;;;21.40;5.40;;;;;;;;;;5522429;25;20491;-63
2024/04/13 05:00:13;;;;;;;17.63;5.25;;;;;;;;;;5521720;25;20029;-63
2024/04/13 05:02:41;;;;;;;16.77;4.97;;;;;;;;;;5521828;26;20480;-63
2024/04/13 05:05:09;;;;;;;21.17;5.90;;;;;;;;;;5522502;25;20101;-63
2024/04/13 05:07:36;;;;;;;16.35;5.28;;;;;;;;;;5521646;25;20369;-63
2024/04/13 05:10:04;;;;;;;20.65;4.45;;;;;;;;;;5522820;25;20021;-63
2024/04/13 05:12:32;;;;;;;24.65;5.57;;;;;;;;;;5521160;26;20022;-63
2024/04/13 05:14:59;;;;;;;22.40;4.93;;;;;;;;;;5521659;26;20480;-63
2024/04/13 05:17:26;;;;;;;23.58;5.95;;;;;;;;;;5521897;25;20034;-63
2024/04/13 05:19:54;;;;;;;19.65;5.55;;;;;;;;;;5521933;26;20472;-63
2024/04/13 05:22:21;;;;;;;26.25;5.75;;;;;;;;;;5520881;25;20033;-63
2024/04/13 05:24:49;;;;;;;18.73;4.45;;;;;;;;;;5521489;26;20042;-63
2024/04/13 05:27:18;;;;;;;18.50;4.68;;;;;;;;;;5522038;25;20025;-63
2024/04/13 05:29:52;;;;;;;21.52;5.95;;;;;;;;;;5521236;25;20468;-63
2024/04/13 05:32:19;;;;;;;24.13;5.00;;;;;;;;;;5516873;26;20021;-63
2024/04/13 05:34:47;;;;;;;26.70;5.97;;;;;;;;;;5521757;25;20033;-63
2024/04/13 05:37:15;;;;;;;15.52;4.72;;;;;;;;;;5521226;26;20026;-63
2024/04/13 05:39:42;;;;;;;19.25;4.78;;;;;;;;;;5521817;26;20109;-63
2024/04/13 05:42:10;;;;;;;21.20;5.05;;;;;;;;;;5516304;26;20030;-63
2024/04/13 05:44:37;;;;;;;26.35;6.05;;;;;;;;;;5521113;25;20049;-63
2024/04/13 05:47:06;;;;;;;18.40;5.20;;;;;;;;;;5521357;26;20025;-63
2024/04/13 05:49:35;;;;;;;17.65;4.85;;;;;;;;;;5518621;25;20148;-63
2024/04/13 05:52:03;;;;;;;20.83;5.00;;;;;;;;;;5521641;25;20370;-63
2024/04/13 05:54:31;;;;;;;24.50;5.82;;;;;;;;;;5515503;26;20022;-63
2024/04/13 05:56:58;;;;;;;31.98;5.63;;;;;;;;;;5502262;26;20362;-63
2024/04/13 05:59:26;;;;;;;26.10;5.88;;;;;;;;;;5520154;26;20025;-63
2024/04/13 06:01:53;;;;;;;22.85;5.45;;;;;;;;;;5515846;26;20030;-63
2024/04/13 06:04:20;;;;;;;14.00;5.50;;;;;;;;;;5520332;25;20021;-63
2024/04/13 06:06:49;;;;;;;28.27;6.57;;;;;;;;;;5521215;26;20034;-63
2024/04/13 06:09:17;;;;;;;24.52;5.95;;;;;;;;;;5521073;25;20021;-63
2024/04/13 06:11:44;;;;;;;27.55;6.32;;;;;;;;;;5520197;26;20021;-63
2024/04/13 06:14:12;;;;;;;28.52;5.85;;;;;;;;;;5521884;25;20017;-63
2024/04/13 06:16:40;;;;;;;34.05;6.28;;;;;;;;;;5521317;25;20029;-63
2024/04/13 06:19:11;;;;;;;24.67;6.18;;;;;;;;;;5519894;25;20477;-63
2024/04/13 06:21:39;;;;;;;28.17;6.40;;;;;;;;;;5520859;25;20030;-63
2024/04/13 06:24:07;;;;;;;23.38;5.65;;;;;;;;;;5519329;25;20041;-63
2024/04/13 06:26:35;;;;;;;27.58;6.50;;;;;;;;;;5516322;26;20033;-63
2024/04/13 06:29:02;;;;;;;22.95;6.00;;;;;;;;;;5521237;25;20063;-63
2024/04/13 06:31:30;;;;;;;21.67;5.88;;;;;;;;;;5520812;25;20034;-63
2024/04/13 06:33:57;;;;;;;25.92;5.47;;;;;;;;;;5520212;25;20057;-63
2024/04/13 06:36:25;;;;;;;21.35;5.97;;;;;;;;;;5520809;25;20029;-63
2024/04/13 06:38:52;;;;;;;26.10;6.85;;;;;;;;;;5519621;26;20021;-63
2024/04/13 06:41:20;;;;;;;35.53;6.30;;;;;;;;;;5521073;26;20353;-63
2024/04/13 06:43:48;;;;;;;25.95;7.57;;;;;;;;;;5520274;26;20433;-63
2024/04/13 06:46:15;;;;;;;25.88;6.28;;;;;;;;;;5519831;25;20038;-63
2024/04/13 06:48:42;;;;;;;26.95;6.35;;;;;;;;;;5520363;26;20025;-63
2024/04/13 06:51:11;;;;;;;25.77;7.35;;;;;;;;;;5515211;26;20037;-63
2024/04/13 06:53:39;;;;;;;23.55;6.82;;;;;;;;;;5512967;26;20482;-63
2024/04/13 06:56:08;;;;;;;27.65;7.20;;;;;;;;;;5520206;26;20033;-64
2024/04/13 06:58:35;;;;;;;19.00;5.82;;;;;;;;;;5520487;25;20021;-63
2024/04/13 07:01:03;;;;;;;23.50;6.00;;;;;;;;;;5519930;25;20021;-64
2024/04/13 07:03:30;;;;;;;21.17;5.88;;;;;;;;;;5520605;25;20026;-63
2024/04/13 07:05:58;;;;;;;23.98;6.85;;;;;;;;;;5520087;25;20021;-63
2024/04/13 07:08:26;;;;;;;17.90;5.95;;;;;;;;;;5519362;26;20326;-64
2024/04/13 07:10:54;;;;;;;25.27;5.90;;;;;;;;;;5520194;25;20018;-63
2024/04/13 07:13:22;;;;;;;21.48;5.50;;;;;;;;;;5520174;26;20349;-63
2024/04/13 07:15:50;;;;;;;20.35;6.03;;;;;;;;;;5512132;26;20018;-63
2024/04/13 07:18:18;;;;;;;22.45;6.03;;;;;;;;;;5511793;26;20445;-63
2024/04/13 07:20:45;;;;;;;25.58;5.70;;;;;;;;;;5509864;26;20468;-63
2024/04/13 07:23:16;;;;;;;20.05;5.47;;;;;;;;;;5520003;25;20129;-63
2024/04/13 07:25:44;;;;;;;18.98;5.68;;;;;;;;;;5519721;26;20037;-64
2024/04/13 07:28:11;;;;;;;28.25;6.68;;;;;;;;;;5519831;26;20025;-64
2024/04/13 07:30:39;;;;;;;23.33;5.47;;;;;;;;;;5520480;26;20038;-63
2024/04/13 07:33:06;;;;;;;18.20;5.60;;;;;;;;;;5520592;26;20038;-63
2024/04/13 07:35:34;;;;;;;18.60;5.75;;;;;;;;;;5516505;26;20101;-63
2024/04/13 07:38:01;;;;;;;24.65;6.03;;;;;;;;;;5523783;25;20021;-63
2024/04/13 07:40:28;;;;;;;26.40;5.35;;;;;;;;;;5518430;26;20021;-63
2024/04/13 07:42:56;;;;;;;18.95;5.85;;;;;;;;;;5522883;25;20362;-63
2024/04/13 07:45:23;;;;;;;20.92;5.78;;;;;;;;;;5523152;25;20029;-63
2024/04/13 07:47:51;;;;;;;21.35;5.25;;;;;;;;;;5523279;25;20030;-63
2024/04/13 07:50:18;;;;;;;21.13;5.57;;;;;;;;;;5493053;26;20021;-63
2024/04/13 07:52:46;;;;;;;17.02;5.30;;;;;;;;;;5523533;25;20021;-63
2024/04/13 07:55:14;;;;;;;20.33;5.07;;;;;;;;;;5522985;26;20025;-63
2024/04/13 07:57:41;;;;;;;18.05;5.75;;;;;;;;;;5522502;26;20026;-63
2024/04/13 08:00:10;;;;;;;16.92;5.22;;;;;;;;;;5523401;25;20464;-63
2024/04/13 08:02:37;;;;;;;19.25;4.88;;;;;;;;;;5522900;25;20038;-63
2024/04/13 08:05:07;;;;;;;18.63;5.40;;;;;;;;;;5522822;25;20037;-63
2024/04/13 08:07:35;;;;;;;17.92;4.72;;;;;;;;;;5522823;25;20037;-63
2024/04/13 08:10:02;;;;;;;22.15;5.05;;;;;;;;;;5522154;26;20106;-63
2024/04/13 08:12:31;;;;;;;12.77;4.50;;;;;;;;;;5523095;25;20363;-63
2024/04/13 08:14:59;;;;;;;20.23;5.20;;;;;;;;;;5517484;26;20018;-63
2024/04/13 08:17:27;;;;;;;15.20;4.65;;;;;;;;;;5522015;25;20038;-63
2024/04/13 08:19:55;;;;;;;17.50;4.45;;;;;;;;;;5522686;25;20376;-63
2024/04/13 08:22:22;;;;;;;15.00;4.75;;;;;;;;;;5522914;25;20113;-63
2024/04/13 08:24:51;;;;;;;21.90;6.28;;;;;;;;;;5521505;26;20029;-63
2024/04/13 08:27:18;;;;;;;12.18;4.47;;;;;;;;;;5523533;26;20026;-63
2024/04/13 08:29:52;;;;;;;16.10;5.00;;;;;;;;;;5522888;25;20354;-64
2024/04/13 08:32:20;;;;;;;17.90;4.80;;;;;;;;;;5522329;26;20144;-64
2024/04/13 08:34:47;;;;;;;17.80;4.78;;;;;;;;;;5522627;25;20033;-63
2024/04/13 08:37:17;;;;;;;15.25;5.03;;;;;;;;;;5522820;26;20025;-64
2024/04/13 08:39:44;;;;;;;14.32;4.90;;;;;;;;;;5521564;25;20444;-64
2024/04/13 08:42:12;;;;;;;18.88;4.80;;;;;;;;;;5523085;26;20025;-64
2024/04/13 08:44:39;;;;;;;13.00;4.32;;;;;;;;;;5522169;25;20033;-64
2024/04/13 08:47:07;;;;;;;17.42;5.47;;;;;;;;;;5520856;25;20029;-63
2024/04/13 08:49:36;;;;;;;12.43;3.85;;;;;;;;;;5518227;25;20494;-64
2024/04/13 08:52:06;;;;;;;21.08;5.32;;;;;;;;;;5522263;26;20030;-64
2024/04/13 08:54:34;;;;;;;28.38;5.10;;;;;;;;;;5515426;26;20371;-64
2024/04/13 08:57:02;;;;;;;15.35;5.15;;;;;;;;;;5522471;25;20094;-64
2024/04/13 08:59:31;;;;;;;17.05;4.88;;;;;;;;;;5521035;26;20093;-64
2024/04/13 09:01:59;;;;;;;14.13;4.45;;;;;;;;;;5522203;25;20113;-64
2024/04/13 09:04:26;;;;;;;12.45;4.25;;;;;;;;;;5522267;25;20398;-64
2024/04/13 09:06:57;;;;;;;14.52;4.13;;;;;;;;;;5521216;26;20022;-63
2024/04/13 09:09:25;;;;;;;15.38;4.32;;;;;;;;;;5522017;25;20105;-64
2024/04/13 09:11:53;;;;;;;17.77;4.50;;;;;;;;;;5522279;25;20045;-64
2024/04/13 09:14:20;;;;;;;14.55;3.88;;;;;;;;;;5521271;25;20044;-64
2024/04/13 09:16:47;;;;;;;18.33;4.55;;;;;;;;;;5521778;25;20512;-64
2024/04/13 09:19:15;;;;;;;18.85;4.38;;;;;;;;;;5520158;25;20363;-64
2024/04/13 09:21:42;;;;;;;16.52;4.07;;;;;;;;;;5519913;26;20025;-64
2024/04/13 09:24:11;;;;;;;12.63;4.28;;;;;;;;;;5522039;25;20030;-64
2024/04/13 09:26:44;;;;;;;17.08;4.80;;;;;;;;;;5521369;25;20140;-64
2024/04/13 09:29:13;;;;;;;14.48;4.45;;;;;;;;;;5514980;26;20022;-64
2024/04/13 09:31:40;;;;;;;12.73;4.38;;;;;;;;;;5517200;26;20124;-64
2024/04/13 09:34:08;;;;;;;16.45;4.75;;;;;;;;;;5521799;25;20029;-63
2024/04/13 09:36:35;;;;;;;13.40;4.53;;;;;;;;;;5520962;25;20036;-64
2024/04/13 09:39:04;;;;;;;9.27;3.88;;;;;;;;;;5522223;25;20033;-64
2024/04/13 09:41:31;;;;;;;11.45;4.45;;;;;;;;;;5513572;26;20037;-64
2024/04/13 09:43:59;;;;;;;15.52;4.10;;;;;;;;;;5521486;26;20465;-64
2024/04/13 09:46:26;;;;;;;16.38;4.10;;;;;;;;;;5521651;25;20022;-64
2024/04/13 09:48:54;;;;;;;11.60;3.20;;;;;;;;;;5518146;25;20028;-64
2024/04/13 09:51:22;;;;;;;12.82;3.47;;;;;;;;;;5521635;25;20021;-64
2024/04/13 09:53:49;;;;;;;10.95;3.80;;;;;;;;;;5521295;26;20025;-64
2024/04/13 09:56:18;;;;;;;13.05;3.67;;;;;;;;;;5520487;26;20017;-64
2024/04/13 09:58:46;;;;;;;12.55;3.70;;;;;;;;;;5521104;25;20021;-64
2024/04/13 10:01:13;;;;;;;8.93;3.72;;;;;;;;;;5521549;25;20021;-64
2024/04/13 10:03:40;;;;;;;10.18;3.60;;;;;;;;;;5520299;26;20038;-63
2024/04/13 10:06:11;;;;;;;14.93;4.57;;;;;;;;;;5521529;25;20133;-64
2024/04/13 10:08:39;;;;;;;10.32;3.80;;;;;;;;;;5520745;25;20363;-64
2024/04/13 10:11:07;;;;;;;14.80;4.20;;;;;;;;;;5520581;25;20498;-64
2024/04/13 10:13:37;;;;;;;9.25;2.97;;;;;;;;;;5521525;25;20445;-64
2024/04/13 10:16:05;;;;;;;8.95;3.55;;;;;;;;;;5520376;25;20060;-64
2024/04/13 10:18:32;;;;;;;9.43;3.67;;;;;;;;;;5520586;26;20114;-64
2024/04/13 10:21:06;;;;;;;12.00;3.30;;;;;;;;;;5521071;25;20034;-63
2024/04/13 10:23:40;;;;;;;8.10;4.18;;;;;;;;;;5516371;26;20041;-63
2024/04/13 10:26:08;;;;;;;8.32;3.90;;;;;;;;;;5520911;25;20033;-63
2024/04/13 10:28:37;;;;;;;11.23;3.92;;;;;;;;;;5520606;26;20021;-63
2024/04/13 10:31:05;;;;;;;9.75;3.47;;;;;;;;;;5512697;25;20021;-63
2024/04/13 10:33:33;;;;;;;11.07;3.78;;;;;;;;;;5520709;25;20400;-63
2024/04/13 10:36:02;;;;;;;9.50;3.15;;;;;;;;;;5520834;25;20033;-63
2024/04/13 10:38:30;;;;;;;9.23;3.28;;;;;;;;;;5519407;26;20029;-63
2024/04/13 10:40:58;;;;;;;9.88;4.10;;;;;;;;;;5521009;25;20105;-63
2024/04/13 10:43:26;;;;;;;6.13;3.22;;;;;;;;;;5520487;25;20353;-63
2024/04/13 10:45:54;;;;;;;8.07;3.70;;;;;;;;;;5519494;26;20037;-63
2024/04/13 10:48:22;;;;;;;7.47;3.85;;;;;;;;;;5520203;25;20017;-63
2024/04/13 10:50:50;;;;;;;8.02;3.28;;;;;;;;;;5519533;26;20032;-63
2024/04/13 10:53:19;;;;;;;9.82;3.67;;;;;;;;;;5512232;26;20018;-63
2024/04/13 10:55:49;;;;;;;9.15;4.20;;;;;;;;;;5519984;26;20345;-63
2024/04/13 10:58:18;;;;;;;8.98;3.88;;;;;;;;;;5520345;25;20018;-63
2024/04/13 11:00:46;;;;;;;11.20;4.55;;;;;;;;;;5519813;25;20033;-63
2024/04/13 11:03:14;;;;;;;12.60;3.83;;;;;;;;;;5513613;26;20477;-63
2024/04/13 11:05:41;;;;;;;11.88;3.80;;;;;;;;;;5520264;25;20030;-63
2024/04/13 11:08:09;;;;;;;8.93;4.05;;;;;;;;;;5516158;26;20049;-63
2024/04/13 11:10:37;;;;;;;10.07;3.97;;;;;;;;;;5523570;25;20021;-63
2024/04/13 11:13:05;;;;;;;10.43;4.35;;;;;;;;;;5522960;25;20017;-63
2024/04/13 11:15:33;;;;;;;11.13;4.65;;;;;;;;;;5523402;26;20031;-63
2024/04/13 11:18:01;;;;;;;11.15;4.40;;;;;;;;;;5523483;25;20045;-64
2024/04/13 11:20:30;;;;;;;11.13;4.97;;;;;;;;;;5522929;25;20367;-63
2024/04/13 11:22:58;;;;;;;12.82;4.88;;;;;;;;;;5523795;25;20017;-64
2024/04/13 11:25:26;;;;;;;9.82;4.30;;;;;;;;;;5523852;25;20026;-63
2024/04/13 11:27:54;;;;;;;12.38;5.63;;;;;;;;;;5522413;25;20029;-63
2024/04/13 11:30:21;;;;;;;12.75;4.72;;;;;;;;;;5523657;25;20029;-63
2024/04/13 11:32:48;;;;;;;10.50;4.00;;;;;;;;;;5524044;25;20017;-63
2024/04/13 11:35:16;;;;;;;12.82;4.30;;;;;;;;;;5522897;26;20084;-64
2024/04/13 11:37:42;;;;;;;8.43;3.83;;;;;;;;;;5524132;26;20006;-63
2024/04/13 11:40:12;;;;;;;11.65;4.55;;;;;;;;;;5523611;25;20017;-64
2024/04/13 11:42:39;;;;;;;9.48;3.70;;;;;;;;;;5523465;25;20016;-63
2024/04/13 11:45:06;;;;;;;9.82;4.22;;;;;;;;;;5523948;25;20009;-63
2024/04/13 11:47:32;;;;;;;11.65;5.53;;;;;;;;;;5512308;26;20089;-63
2024/04/13 11:50:02;;;;;;;9.68;4.22;;;;;;;;;;5521681;25;20074;-63
2024/04/13 11:52:29;;;;;;;9.48;4.43;;;;;;;;;;5523559;25;20006;-63
2024/04/13 11:54:57;;;;;;;9.45;4.30;;;;;;;;;;5523593;25;20001;-63
2024/04/13 11:57:23;;;;;;;8.80;3.70;;;;;;;;;;5519795;26;20457;-63
2024/04/13 11:59:50;;;;;;;9.30;4.85;;;;;;;;;;5523705;26;20013;-63
2024/04/13 12:02:16;;;;;;;8.02;3.92;;;;;;;;;;5522814;26;20412;-63
2024/04/13 12:04:43;;;;;;;7.80;4.03;;;;;;;;;;5523799;25;20073;-63
2024/04/13 12:07:11;;;;;;;8.25;3.92;;;;;;;;;;5523684;25;20009;-63
2024/04/13 12:09:38;;;;;;;9.18;4.18;;;;;;;;;;5522548;26;20148;-63
2024/04/13 12:12:06;;;;;;;7.82;3.35;;;;;;;;;;5523837;25;20002;-63
2024/04/13 12:14:33;;;;;;;7.63;3.55;;;;;;;;;;5523640;25;20233;-63
2024/04/13 12:16:59;;;;;;;9.90;4.07;;;;;;;;;;5522575;26;20020;-63
2024/04/13 12:19:26;;;;;;;6.93;3.33;;;;;;;;;;5523417;25;20016;-63
2024/04/13 12:21:52;;;;;;;6.68;3.55;;;;;;;;;;5521956;26;20012;-63
2024/04/13 12:24:18;;;;;;;8.63;3.45;;;;;;;;;;5522801;25;20013;-63
2024/04/13 12:26:44;;;;;;;8.07;3.38;;;;;;;;;;5523109;25;20029;-63
2024/04/13 12:29:11;;;;;;;11.82;4.32;;;;;;;;;;5523190;26;20013;-63
2024/04/13 12:31:38;;;;;;;8.98;3.60;;;;;;;;;;5522795;25;20026;-63
2024/04/13 12:34:06;;;;;;;8.68;4.05;;;;;;;;;;5509478;26;20104;-63
2024/04/13 12:36:35;;;;;;;9.05;4.05;;;;;;;;;;5522858;26;20029;-63
2024/04/13 12:39:02;;;;;;;8.15;3.95;;;;;;;;;;5522690;25;20402;-63
2024/04/13 12:41:29;;;;;;;11.27;4.07;;;;;;;;;;5501507;26;20057;-63
2024/04/13 12:43:55;;;;;;;9.75;3.95;;;;;;;;;;5515764;26;20047;-63
2024/04/13 12:46:22;;;;;;;7.85;3.90;;;;;;;;;;5515351;26;20097;-63
2024/04/13 12:48:49;;;;;;;11.55;4.57;;;;;;;;;;5521394;25;20064;-63
2024/04/13 12:51:17;;;;;;;7.35;3.85;;;;;;;;;;5517112;26;20002;-63
2024/04/13 12:53:44;;;;;;;9.45;4.13;;;;;;;;;;5522460;26;20041;-63
2024/04/13 12:56:11;;;;;;;7.95;3.65;;;;;;;;;;5522115;26;20016;-63
2024/04/13 12:58:37;;;;;;;8.32;4.45;;;;;;;;;;5522126;25;20012;-63
2024/04/13 13:01:04;;;;;;;10.05;4.30;;;;;;;;;;5522558;25;20037;-63
2024/04/13 13:03:31;;;;;;;12.13;4.28;;;;;;;;;;5523261;25;20368;-63
2024/04/13 13:05:58;;;;;;;6.50;3.80;;;;;;;;;;5521592;26;20104;-63
2024/04/13 13:08:24;;;;;;;9.80;4.40;;;;;;;;;;5522667;26;20005;-63
2024/04/13 13:10:50;;;;;;;8.80;3.95;;;;;;;;;;5522546;25;20472;-63
2024/04/13 13:13:17;;;;;;;10.23;4.32;;;;;;;;;;5521883;26;20108;-63
2024/04/13 13:15:43;;;;;;;8.90;4.82;;;;;;;;;;5522899;25;20021;-63
2024/04/13 13:18:09;;;;;;;7.93;3.83;;;;;;;;;;5521865;25;20005;-64
2024/04/13 13:20:36;;;;;;;10.73;4.75;;;;;;;;;;5522258;25;20006;-63
2024/04/13 13:23:03;;;;;;;7.03;4.32;;;;;;;;;;5522570;26;20465;-64
2024/04/13 13:25:29;;;;;;;9.88;5.15;;;;;;;;;;5522131;26;20424;-63
2024/04/13 13:27:56;;;;;;;10.75;4.63;;;;;;;;;;5521776;25;20413;-63
2024/04/13 13:30:22;;;;;;;7.90;4.40;;;;;;;;;;5522670;26;20017;-63
2024/04/13 13:32:48;;;;;;;8.15;4.40;;;;;;;;;;5521940;25;20036;-63
2024/04/13 13:35:15;;;;;;;7.50;5.00;;;;;;;;;;5521400;25;20524;-63
2024/04/13 13:37:41;;;;;;;8.25;4.15;;;;;;;;;;5522380;25;20005;-63
2024/04/13 13:40:11;;;;;;;7.53;5.00;;;;;;;;;;5521954;26;20006;-64
2024/04/13 13:42:37;;;;;;;10.60;5.68;;;;;;;;;;5521874;25;20013;-63
2024/04/13 13:45:03;;;;;;;10.85;5.28;;;;;;;;;;5522049;25;20005;-63
2024/04/13 13:47:30;;;;;;;10.25;5.80;;;;;;;;;;5521884;26;20088;-63
2024/04/13 13:49:57;;;;;;;9.15;6.07;;;;;;;;;;5518648;25;20011;-63
2024/04/13 13:52:23;;;;;;;9.63;6.13;;;;;;;;;;5522019;26;20009;-64
2024/04/13 13:54:49;;;;;;;11.63;6.18;;;;;;;;;;5521279;26;20352;-64
2024/04/13 13:57:16;;;;;;;10.90;6.65;;;;;;;;;;5521797;25;20002;-63
2024/04/13 13:59:42;;;;;;;11.05;6.82;;;;;;;;;;5521784;26;20337;-64
2024/04/13 14:02:09;;;;;;;10.23;6.45;;;;;;;;;;5520791;25;20016;-64
2024/04/13 14:04:36;;;;;;;12.25;6.68;;;;;;;;;;5521802;25;20005;-64
2024/04/13 14:07:03;;;;;;;12.68;6.80;;;;;;;;;;5522049;25;20097;-63
2024/04/13 14:09:31;;;;;;;11.00;6.72;;;;;;;;;;5520947;25;21525;-64
2024/04/13 14:11:58;;;;;;;9.70;6.05;;;;;;;;;;5521852;25;20020;-64
2024/04/13 14:14:24;;;;;;;9.55;6.22;;;;;;;;;;5521350;26;20013;-63
2024/04/13 14:16:51;;;;;;;10.60;5.78;;;;;;;;;;5521465;25;20005;-63
2024/04/13 14:19:17;;;;;;;8.77;6.22;;;;;;;;;;5521609;25;20312;-64
2024/04/13 14:21:43;;;;;;;17.20;6.10;;;;;;;;;;5521209;26;20005;-63
2024/04/13 14:24:09;;;;;;;9.02;6.20;;;;;;;;;;5521221;26;20017;-63
2024/04/13 14:26:36;;;;;;;12.45;7.00;;;;;;;;;;5521502;25;20113;-63
2024/04/13 14:29:02;;;;;;;12.63;7.22;;;;;;;;;;5521649;25;20005;-64
2024/04/13 14:31:28;;;;;;;10.02;6.60;;;;;;;;;;5520693;25;20081;-63
2024/04/13 14:33:55;;;;;;;10.50;6.97;;;;;;;;;;5521670;25;20123;-64
2024/04/13 14:36:22;;;;;;;11.10;7.43;;;;;;;;;;5521084;25;20024;-63